sensor_id;sensor_type;location;lat;lon;timestamp;temperature;humidity
53422;DHT22;39319;52.944;5.928;2023-04-03T00:01:30;6.70;81.30
53422;DHT22;39319;52.944;5.928;2023-04-03T00:03:56;7.10;81.40
53422;DHT22;39319;52.944;5.928;2023-04-03T00:06:23;6.90;82.10
53422;DHT22;39319;52.944;5.928;2023-04-03T00:08:50;6.90;81.60
53422;DHT22;39319;52.944;5.928;2023-04-03T00:11:17;7.00;81.80
53422;DHT22;39319;52.944;5.928;2023-04-03T00:13:43;6.50;81.90
53422;DHT22;39319;52.944;5.928;2023-04-03T00:16:09;6.60;82.20
53422;DHT22;39319;52.944;5.928;2023-04-03T00:18:36;6.90;82.80
53422;DHT22;39319;52.944;5.928;2023-04-03T00:21:05;6.80;82.40
53422;DHT22;39319;52.944;5.928;2023-04-03T00:23:31;6.50;82.00
53422;DHT22;39319;52.944;5.928;2023-04-03T00:25:56;6.60;82.60
53422;DHT22;39319;52.944;5.928;2023-04-03T00:28:22;6.70;82.40
53422;DHT22;39319;52.944;5.928;2023-04-03T00:30:51;6.70;82.20
53422;DHT22;39319;52.944;5.928;2023-04-03T00:33:18;6.70;82.60
53422;DHT22;39319;52.944;5.928;2023-04-03T00:35:47;6.50;82.70
53422;DHT22;39319;52.944;5.928;2023-04-03T00:38:13;6.40;82.10
53422;DHT22;39319;52.944;5.928;2023-04-03T00:40:43;6.30;82.60
53422;DHT22;39319;52.944;5.928;2023-04-03T00:43:16;6.60;82.80
53422;DHT22;39319;52.944;5.928;2023-04-03T00:45:44;6.40;82.80
53422;DHT22;39319;52.944;5.928;2023-04-03T00:48:15;6.40;83.20
53422;DHT22;39319;52.944;5.928;2023-04-03T00:50:43;6.40;83.30
53422;DHT22;39319;52.944;5.928;2023-04-03T00:53:13;6.40;83.40
53422;DHT22;39319;52.944;5.928;2023-04-03T00:55:40;6.30;83.30
53422;DHT22;39319;52.944;5.928;2023-04-03T00:58:10;6.30;83.80
53422;DHT22;39319;52.944;5.928;2023-04-03T01:00:41;6.20;83.80
53422;DHT22;39319;52.944;5.928;2023-04-03T01:03:09;6.10;83.90
53422;DHT22;39319;52.944;5.928;2023-04-03T01:05:35;6.30;84.10
53422;DHT22;39319;52.944;5.928;2023-04-03T01:08:01;6.10;84.30
53422;DHT22;39319;52.944;5.928;2023-04-03T01:10:27;5.90;84.60
53422;DHT22;39319;52.944;5.928;2023-04-03T01:12:53;5.90;84.80
53422;DHT22;39319;52.944;5.928;2023-04-03T01:15:25;6.60;85.60
53422;DHT22;39319;52.944;5.928;2023-04-03T01:17:58;5.80;85.10
53422;DHT22;39319;52.944;5.928;2023-04-03T01:28:16;5.80;85.00
53422;DHT22;39319;52.944;5.928;2023-04-03T01:33:38;5.60;84.00
53422;DHT22;39319;52.944;5.928;2023-04-03T01:36:04;5.80;84.80
53422;DHT22;39319;52.944;5.928;2023-04-03T01:38:30;5.90;85.00
53422;DHT22;39319;52.944;5.928;2023-04-03T01:40:56;5.70;85.20
53422;DHT22;39319;52.944;5.928;2023-04-03T01:43:22;5.70;85.40
53422;DHT22;39319;52.944;5.928;2023-04-03T01:45:47;5.70;85.30
53422;DHT22;39319;52.944;5.928;2023-04-03T01:48:16;5.80;85.50
53422;DHT22;39319;52.944;5.928;2023-04-03T01:50:42;5.40;85.00
53422;DHT22;39319;52.944;5.928;2023-04-03T01:53:07;5.80;85.20
53422;DHT22;39319;52.944;5.928;2023-04-03T01:55:33;5.60;85.10
53422;DHT22;39319;52.944;5.928;2023-04-03T01:57:59;5.30;85.30
53422;DHT22;39319;52.944;5.928;2023-04-03T02:00:25;5.90;85.70
53422;DHT22;39319;52.944;5.928;2023-04-03T02:02:52;5.60;85.00
53422;DHT22;39319;52.944;5.928;2023-04-03T02:05:18;5.30;85.10
53422;DHT22;39319;52.944;5.928;2023-04-03T02:07:44;5.60;85.00
53422;DHT22;39319;52.944;5.928;2023-04-03T02:10:10;5.50;84.90
53422;DHT22;39319;52.944;5.928;2023-04-03T02:12:36;5.60;85.10
53422;DHT22;39319;52.944;5.928;2023-04-03T02:15:01;5.40;84.90
53422;DHT22;39319;52.944;5.928;2023-04-03T02:17:27;5.20;84.60
53422;DHT22;39319;52.944;5.928;2023-04-03T02:19:53;5.20;85.30
53422;DHT22;39319;52.944;5.928;2023-04-03T02:22:18;5.30;85.50
53422;DHT22;39319;52.944;5.928;2023-04-03T02:24:45;5.30;85.10
53422;DHT22;39319;52.944;5.928;2023-04-03T02:27:13;5.10;85.10
53422;DHT22;39319;52.944;5.928;2023-04-03T02:29:39;5.50;85.30
53422;DHT22;39319;52.944;5.928;2023-04-03T02:32:05;5.50;85.80
53422;DHT22;39319;52.944;5.928;2023-04-03T02:34:30;5.00;85.80
53422;DHT22;39319;52.944;5.928;2023-04-03T02:36:56;5.20;86.30
53422;DHT22;39319;52.944;5.928;2023-04-03T02:39:22;5.30;86.10
53422;DHT22;39319;52.944;5.928;2023-04-03T02:41:50;5.50;86.00
53422;DHT22;39319;52.944;5.928;2023-04-03T02:44:15;5.60;86.30
53422;DHT22;39319;52.944;5.928;2023-04-03T02:46:41;5.10;86.40
53422;DHT22;39319;52.944;5.928;2023-04-03T02:49:07;5.10;86.30
53422;DHT22;39319;52.944;5.928;2023-04-03T02:51:33;5.10;86.40
53422;DHT22;39319;52.944;5.928;2023-04-03T02:53:58;5.00;86.60
53422;DHT22;39319;52.944;5.928;2023-04-03T02:56:24;5.30;86.70
53422;DHT22;39319;52.944;5.928;2023-04-03T02:58:50;4.90;86.90
53422;DHT22;39319;52.944;5.928;2023-04-03T03:01:15;5.00;86.90
53422;DHT22;39319;52.944;5.928;2023-04-03T03:03:41;4.90;87.00
53422;DHT22;39319;52.944;5.928;2023-04-03T03:06:10;5.60;87.50
53422;DHT22;39319;52.944;5.928;2023-04-03T03:08:36;5.00;87.40
53422;DHT22;39319;52.944;5.928;2023-04-03T03:11:02;5.10;87.40
53422;DHT22;39319;52.944;5.928;2023-04-03T03:13:29;4.80;87.40
53422;DHT22;39319;52.944;5.928;2023-04-03T03:15:55;5.20;87.90
53422;DHT22;39319;52.944;5.928;2023-04-03T03:18:21;5.50;88.20
53422;DHT22;39319;52.944;5.928;2023-04-03T03:20:51;4.90;87.60
53422;DHT22;39319;52.944;5.928;2023-04-03T03:23:17;5.20;88.10
53422;DHT22;39319;52.944;5.928;2023-04-03T03:25:43;5.30;88.20
53422;DHT22;39319;52.944;5.928;2023-04-03T03:28:08;4.80;88.10
53422;DHT22;39319;52.944;5.928;2023-04-03T03:30:34;4.90;88.20
53422;DHT22;39319;52.944;5.928;2023-04-03T03:33:00;5.00;88.30
53422;DHT22;39319;52.944;5.928;2023-04-03T03:35:26;4.70;88.50
53422;DHT22;39319;52.944;5.928;2023-04-03T03:37:54;5.50;89.00
53422;DHT22;39319;52.944;5.928;2023-04-03T03:40:20;4.80;88.70
53422;DHT22;39319;52.944;5.928;2023-04-03T03:42:46;4.80;89.00
53422;DHT22;39319;52.944;5.928;2023-04-03T03:45:11;4.60;88.80
53422;DHT22;39319;52.944;5.928;2023-04-03T03:47:37;4.70;89.00
53422;DHT22;39319;52.944;5.928;2023-04-03T03:50:03;4.20;88.90
53422;DHT22;39319;52.944;5.928;2023-04-03T03:52:32;4.80;88.80
53422;DHT22;39319;52.944;5.928;2023-04-03T03:54:57;4.70;89.30
53422;DHT22;39319;52.944;5.928;2023-04-03T03:57:23;4.70;89.40
53422;DHT22;39319;52.944;5.928;2023-04-03T03:59:49;4.50;89.00
53422;DHT22;39319;52.944;5.928;2023-04-03T04:02:17;4.70;89.50
53422;DHT22;39319;52.944;5.928;2023-04-03T04:04:42;4.50;89.70
53422;DHT22;39319;52.944;5.928;2023-04-03T04:07:08;5.20;90.10
53422;DHT22;39319;52.944;5.928;2023-04-03T04:09:34;4.40;89.50
53422;DHT22;39319;52.944;5.928;2023-04-03T04:11:59;4.60;89.90
53422;DHT22;39319;52.944;5.928;2023-04-03T04:14:25;4.40;89.90
53422;DHT22;39319;52.944;5.928;2023-04-03T04:16:51;4.30;89.50
53422;DHT22;39319;52.944;5.928;2023-04-03T04:19:17;4.70;89.90
53422;DHT22;39319;52.944;5.928;2023-04-03T04:21:43;4.70;90.00
53422;DHT22;39319;52.944;5.928;2023-04-03T04:24:09;4.60;90.20
53422;DHT22;39319;52.944;5.928;2023-04-03T04:26:34;6.00;90.40
53422;DHT22;39319;52.944;5.928;2023-04-03T04:29:00;4.20;90.10
53422;DHT22;39319;52.944;5.928;2023-04-03T04:31:26;4.10;89.90
53422;DHT22;39319;52.944;5.928;2023-04-03T04:33:52;4.10;90.00
53422;DHT22;39319;52.944;5.928;2023-04-03T04:36:19;4.00;89.90
53422;DHT22;39319;52.944;5.928;2023-04-03T04:38:45;4.10;90.20
53422;DHT22;39319;52.944;5.928;2023-04-03T04:41:10;4.80;90.30
53422;DHT22;39319;52.944;5.928;2023-04-03T04:43:36;4.40;90.20
53422;DHT22;39319;52.944;5.928;2023-04-03T04:46:04;4.00;90.30
53422;DHT22;39319;52.944;5.928;2023-04-03T04:48:30;3.90;90.30
53422;DHT22;39319;52.944;5.928;2023-04-03T04:50:56;3.90;90.30
53422;DHT22;39319;52.944;5.928;2023-04-03T04:53:22;3.80;90.20
53422;DHT22;39319;52.944;5.928;2023-04-03T04:55:48;3.90;90.40
53422;DHT22;39319;52.944;5.928;2023-04-03T04:58:14;4.10;90.50
53422;DHT22;39319;52.944;5.928;2023-04-03T05:00:39;3.80;90.40
53422;DHT22;39319;52.944;5.928;2023-04-03T05:03:05;3.80;90.50
53422;DHT22;39319;52.944;5.928;2023-04-03T05:05:31;4.00;90.60
53422;DHT22;39319;52.944;5.928;2023-04-03T05:07:57;3.90;90.60
53422;DHT22;39319;52.944;5.928;2023-04-03T05:10:23;3.80;90.60
53422;DHT22;39319;52.944;5.928;2023-04-03T05:12:48;3.90;90.60
53422;DHT22;39319;52.944;5.928;2023-04-03T05:15:14;3.90;90.50
53422;DHT22;39319;52.944;5.928;2023-04-03T05:17:40;3.70;90.60
53422;DHT22;39319;52.944;5.928;2023-04-03T05:20:06;3.70;90.60
53422;DHT22;39319;52.944;5.928;2023-04-03T05:22:32;3.70;90.70
53422;DHT22;39319;52.944;5.928;2023-04-03T05:24:58;4.40;90.70
53422;DHT22;39319;52.944;5.928;2023-04-03T05:27:23;3.70;90.70
53422;DHT22;39319;52.944;5.928;2023-04-03T05:29:50;4.10;90.70
53422;DHT22;39319;52.944;5.928;2023-04-03T05:32:16;4.60;91.00
53422;DHT22;39319;52.944;5.928;2023-04-03T05:34:41;3.80;90.80
53422;DHT22;39319;52.944;5.928;2023-04-03T05:37:07;3.70;90.70
53422;DHT22;39319;52.944;5.928;2023-04-03T05:39:33;4.80;91.10
53422;DHT22;39319;52.944;5.928;2023-04-03T05:41:59;3.90;90.90
53422;DHT22;39319;52.944;5.928;2023-04-03T05:44:25;3.80;90.90
53422;DHT22;39319;52.944;5.928;2023-04-03T05:46:51;3.70;90.90
53422;DHT22;39319;52.944;5.928;2023-04-03T05:49:17;4.40;91.10
53422;DHT22;39319;52.944;5.928;2023-04-03T05:51:43;3.80;90.90
53422;DHT22;39319;52.944;5.928;2023-04-03T05:54:17;3.70;91.10
53422;DHT22;39319;52.944;5.928;2023-04-03T05:56:44;3.90;90.80
53422;DHT22;39319;52.944;5.928;2023-04-03T05:59:10;3.80;91.30
53422;DHT22;39319;52.944;5.928;2023-04-03T06:01:36;4.00;91.30
53422;DHT22;39319;52.944;5.928;2023-04-03T06:04:02;3.80;91.30
53422;DHT22;39319;52.944;5.928;2023-04-03T06:09:10;3.80;91.20
53422;DHT22;39319;52.944;5.928;2023-04-03T06:11:36;3.90;91.20
53422;DHT22;39319;52.944;5.928;2023-04-03T06:14:02;3.90;91.20
53422;DHT22;39319;52.944;5.928;2023-04-03T06:16:28;3.90;91.10
53422;DHT22;39319;52.944;5.928;2023-04-03T06:18:54;4.50;91.10
53422;DHT22;39319;52.944;5.928;2023-04-03T06:21:23;4.00;91.00
53422;DHT22;39319;52.944;5.928;2023-04-03T06:23:49;4.10;91.00
53422;DHT22;39319;52.944;5.928;2023-04-03T06:26:17;4.20;91.00
53422;DHT22;39319;52.944;5.928;2023-04-03T06:28:43;4.50;90.80
53422;DHT22;39319;52.944;5.928;2023-04-03T06:31:09;4.10;91.00
53422;DHT22;39319;52.944;5.928;2023-04-03T06:33:35;4.20;90.90
53422;DHT22;39319;52.944;5.928;2023-04-03T06:36:04;4.40;90.80
53422;DHT22;39319;52.944;5.928;2023-04-03T06:38:30;4.40;90.90
53422;DHT22;39319;52.944;5.928;2023-04-03T06:40:56;4.30;90.70
53422;DHT22;39319;52.944;5.928;2023-04-03T06:43:22;4.30;90.50
53422;DHT22;39319;52.944;5.928;2023-04-03T06:45:48;4.20;90.50
53422;DHT22;39319;52.944;5.928;2023-04-03T06:48:14;4.40;90.70
53422;DHT22;39319;52.944;5.928;2023-04-03T06:50:39;4.70;90.80
53422;DHT22;39319;52.944;5.928;2023-04-03T06:53:06;4.40;90.50
53422;DHT22;39319;52.944;5.928;2023-04-03T06:55:32;4.70;90.50
53422;DHT22;39319;52.944;5.928;2023-04-03T06:57:58;4.90;90.50
53422;DHT22;39319;52.944;5.928;2023-04-03T07:00:24;4.60;90.30
53422;DHT22;39319;52.944;5.928;2023-04-03T07:02:50;5.00;91.70
53422;DHT22;39319;52.944;5.928;2023-04-03T07:05:17;4.80;90.30
53422;DHT22;39319;52.944;5.928;2023-04-03T07:07:43;4.70;90.20
53422;DHT22;39319;52.944;5.928;2023-04-03T07:10:09;4.90;90.30
53422;DHT22;39319;52.944;5.928;2023-04-03T07:12:36;5.70;90.00
53422;DHT22;39319;52.944;5.928;2023-04-03T07:15:04;5.70;88.70
53422;DHT22;39319;52.944;5.928;2023-04-03T07:17:30;5.30;89.00
53422;DHT22;39319;52.944;5.928;2023-04-03T07:19:56;5.10;89.30
53422;DHT22;39319;52.944;5.928;2023-04-03T07:22:22;5.00;88.80
53422;DHT22;39319;52.944;5.928;2023-04-03T07:24:48;5.70;88.80
53422;DHT22;39319;52.944;5.928;2023-04-03T07:27:14;5.80;88.30
53422;DHT22;39319;52.944;5.928;2023-04-03T07:29:40;5.20;87.90
53422;DHT22;39319;52.944;5.928;2023-04-03T07:32:06;5.40;87.80
53422;DHT22;39319;52.944;5.928;2023-04-03T07:34:32;5.60;87.90
53422;DHT22;39319;52.944;5.928;2023-04-03T07:36:58;5.40;87.80
53422;DHT22;39319;52.944;5.928;2023-04-03T07:39:24;5.90;87.90
53422;DHT22;39319;52.944;5.928;2023-04-03T07:41:50;5.80;87.30
53422;DHT22;39319;52.944;5.928;2023-04-03T07:44:16;5.70;86.20
53422;DHT22;39319;52.944;5.928;2023-04-03T07:46:42;6.00;86.80
53422;DHT22;39319;52.944;5.928;2023-04-03T07:49:07;6.10;87.30
53422;DHT22;39319;52.944;5.928;2023-04-03T07:51:33;6.10;86.20
53422;DHT22;39319;52.944;5.928;2023-04-03T07:54:00;6.10;85.50
53422;DHT22;39319;52.944;5.928;2023-04-03T07:56:26;6.20;85.00
53422;DHT22;39319;52.944;5.928;2023-04-03T07:58:54;6.40;85.80
53422;DHT22;39319;52.944;5.928;2023-04-03T08:01:20;6.60;85.10
53422;DHT22;39319;52.944;5.928;2023-04-03T08:03:46;6.50;84.30
53422;DHT22;39319;52.944;5.928;2023-04-03T08:06:11;6.60;83.90
53422;DHT22;39319;52.944;5.928;2023-04-03T08:08:39;6.80;83.50
53422;DHT22;39319;52.944;5.928;2023-04-03T08:11:04;6.80;87.10
53422;DHT22;39319;52.944;5.928;2023-04-03T08:13:31;7.10;91.50
53422;DHT22;39319;52.944;5.928;2023-04-03T08:15:57;7.00;86.00
53422;DHT22;39319;52.944;5.928;2023-04-03T08:18:24;7.40;82.80
53422;DHT22;39319;52.944;5.928;2023-04-03T08:20:51;7.40;81.70
53422;DHT22;39319;52.944;5.928;2023-04-03T08:23:18;7.40;79.80
53422;DHT22;39319;52.944;5.928;2023-04-03T08:25:44;7.40;78.80
53422;DHT22;39319;52.944;5.928;2023-04-03T08:28:11;7.70;79.70
53422;DHT22;39319;52.944;5.928;2023-04-03T08:30:39;7.20;79.40
53422;DHT22;39319;52.944;5.928;2023-04-03T08:33:06;7.60;79.10
53422;DHT22;39319;52.944;5.928;2023-04-03T08:35:32;7.40;78.10
53422;DHT22;39319;52.944;5.928;2023-04-03T08:37:58;7.40;77.80
53422;DHT22;39319;52.944;5.928;2023-04-03T08:40:24;7.70;76.30
53422;DHT22;39319;52.944;5.928;2023-04-03T08:45:27;7.60;76.10
53422;DHT22;39319;52.944;5.928;2023-04-03T08:48:15;7.80;75.30
53422;DHT22;39319;52.944;5.928;2023-04-03T08:50:49;7.80;72.40
53422;DHT22;39319;52.944;5.928;2023-04-03T08:53:19;7.80;73.30
53422;DHT22;39319;52.944;5.928;2023-04-03T08:55:49;7.90;73.10
53422;DHT22;39319;52.944;5.928;2023-04-03T08:58:29;7.90;73.90
53422;DHT22;39319;52.944;5.928;2023-04-03T09:01:12;8.20;72.40
53422;DHT22;39319;52.944;5.928;2023-04-03T09:03:41;8.20;70.00
53422;DHT22;39319;52.944;5.928;2023-04-03T09:06:08;8.20;69.90
53422;DHT22;39319;52.944;5.928;2023-04-03T09:08:37;8.50;71.30
53422;DHT22;39319;52.944;5.928;2023-04-03T09:17:00;8.60;71.40
53422;DHT22;39319;52.944;5.928;2023-04-03T09:19:39;8.80;71.60
53422;DHT22;39319;52.944;5.928;2023-04-03T09:22:23;9.20;72.90
53422;DHT22;39319;52.944;5.928;2023-04-03T09:25:31;9.00;71.30
53422;DHT22;39319;52.944;5.928;2023-04-03T09:27:59;9.30;70.60
53422;DHT22;39319;52.944;5.928;2023-04-03T09:30:28;9.70;70.50
53422;DHT22;39319;52.944;5.928;2023-04-03T09:32:56;9.70;71.10
53422;DHT22;39319;52.944;5.928;2023-04-03T09:35:36;9.80;68.20
53422;DHT22;39319;52.944;5.928;2023-04-03T09:38:16;10.20;66.60
53422;DHT22;39319;52.944;5.928;2023-04-03T09:41:16;10.40;67.40
53422;DHT22;39319;52.944;5.928;2023-04-03T09:43:52;10.40;67.00
53422;DHT22;39319;52.944;5.928;2023-04-03T09:46:23;11.00;65.00
53422;DHT22;39319;52.944;5.928;2023-04-03T09:49:02;11.20;65.20
53422;DHT22;39319;52.944;5.928;2023-04-03T09:51:29;11.40;65.30
53422;DHT22;39319;52.944;5.928;2023-04-03T09:53:56;11.50;64.30
53422;DHT22;39319;52.944;5.928;2023-04-03T09:56:29;11.80;64.00
53422;DHT22;39319;52.944;5.928;2023-04-03T10:01:37;12.10;63.70
53422;DHT22;39319;52.944;5.928;2023-04-03T10:06:35;12.70;62.80
53422;DHT22;39319;52.944;5.928;2023-04-03T10:09:04;12.50;62.80
53422;DHT22;39319;52.944;5.928;2023-04-03T10:11:30;12.80;61.80
53422;DHT22;39319;52.944;5.928;2023-04-03T10:14:00;13.10;63.00
53422;DHT22;39319;52.944;5.928;2023-04-03T10:16:35;13.30;60.90
53422;DHT22;39319;52.944;5.928;2023-04-03T10:28:00;14.10;57.90
53422;DHT22;39319;52.944;5.928;2023-04-03T10:30:42;14.10;57.50
53422;DHT22;39319;52.944;5.928;2023-04-03T10:36:17;14.40;56.30
53422;DHT22;39319;52.944;5.928;2023-04-03T10:53:21;15.40;55.60
53422;DHT22;39319;52.944;5.928;2023-04-03T10:58:49;15.80;53.90
53422;DHT22;39319;52.944;5.928;2023-04-03T11:01:24;16.10;53.70
53422;DHT22;39319;52.944;5.928;2023-04-03T11:03:58;16.20;52.40
53422;DHT22;39319;52.944;5.928;2023-04-03T11:06:34;16.30;53.00
53422;DHT22;39319;52.944;5.928;2023-04-03T11:09:26;16.30;50.80
53422;DHT22;39319;52.944;5.928;2023-04-03T11:11:57;16.30;57.90
53422;DHT22;39319;52.944;5.928;2023-04-03T11:14:35;16.60;56.40
53422;DHT22;39319;52.944;5.928;2023-04-03T11:17:15;16.60;52.60
53422;DHT22;39319;52.944;5.928;2023-04-03T11:20:35;16.80;51.70
53422;DHT22;39319;52.944;5.928;2023-04-03T11:22:37;16.90;51.60
53422;DHT22;39319;52.944;5.928;2023-04-03T11:30:24;17.20;49.70
53422;DHT22;39319;52.944;5.928;2023-04-03T11:35:17;17.30;50.60
53422;DHT22;39319;52.944;5.928;2023-04-03T11:37:50;17.30;50.30
53422;DHT22;39319;52.944;5.928;2023-04-03T11:43:07;17.60;48.70
53422;DHT22;39319;52.944;5.928;2023-04-03T11:46:00;17.60;46.70
53422;DHT22;39319;52.944;5.928;2023-04-03T11:53:38;17.70;49.50
53422;DHT22;39319;52.944;5.928;2023-04-03T12:01:56;17.80;47.30
53422;DHT22;39319;52.944;5.928;2023-04-03T12:04:24;17.90;46.50
53422;DHT22;39319;52.944;5.928;2023-04-03T12:06:58;17.80;48.30
53422;DHT22;39319;52.944;5.928;2023-04-03T12:09:37;17.90;47.60
53422;DHT22;39319;52.944;5.928;2023-04-03T12:12:31;18.00;48.00
53422;DHT22;39319;52.944;5.928;2023-04-03T12:15:19;18.00;47.40
53422;DHT22;39319;52.944;5.928;2023-04-03T12:17:46;18.10;47.60
53422;DHT22;39319;52.944;5.928;2023-04-03T12:23:28;18.20;48.00
53422;DHT22;39319;52.944;5.928;2023-04-03T12:26:04;18.30;48.80
53422;DHT22;39319;52.944;5.928;2023-04-03T12:28:37;18.30;49.80
53422;DHT22;39319;52.944;5.928;2023-04-03T12:31:04;18.50;47.30
53422;DHT22;39319;52.944;5.928;2023-04-03T12:34:11;18.50;47.10
53422;DHT22;39319;52.944;5.928;2023-04-03T12:36:43;18.60;46.50
53422;DHT22;39319;52.944;5.928;2023-04-03T12:45:15;18.60;47.10
53422;DHT22;39319;52.944;5.928;2023-04-03T12:47:43;18.60;47.70
53422;DHT22;39319;52.944;5.928;2023-04-03T12:50:36;18.60;47.30
53422;DHT22;39319;52.944;5.928;2023-04-03T12:53:07;18.70;47.70
53422;DHT22;39319;52.944;5.928;2023-04-03T12:55:37;18.70;47.60
53422;DHT22;39319;52.944;5.928;2023-04-03T13:00:59;18.70;47.90
53422;DHT22;39319;52.944;5.928;2023-04-03T13:03:26;18.80;47.20
53422;DHT22;39319;52.944;5.928;2023-04-03T13:05:56;18.80;46.80
53422;DHT22;39319;52.944;5.928;2023-04-03T13:08:23;18.80;47.40
53422;DHT22;39319;52.944;5.928;2023-04-03T13:10:53;18.80;46.50
53422;DHT22;39319;52.944;5.928;2023-04-03T13:13:21;18.80;45.90
53422;DHT22;39319;52.944;5.928;2023-04-03T13:15:49;18.90;48.60
53422;DHT22;39319;52.944;5.928;2023-04-03T13:18:44;18.90;47.40
53422;DHT22;39319;52.944;5.928;2023-04-03T13:21:19;18.80;47.70
53422;DHT22;39319;52.944;5.928;2023-04-03T13:23:51;18.70;47.60
53422;DHT22;39319;52.944;5.928;2023-04-03T13:26:20;18.70;44.80
53422;DHT22;39319;52.944;5.928;2023-04-03T13:28:47;18.50;47.60
53422;DHT22;39319;52.944;5.928;2023-04-03T13:33:56;18.50;45.30
53422;DHT22;39319;52.944;5.928;2023-04-03T13:36:29;18.50;46.60
53422;DHT22;39319;52.944;5.928;2023-04-03T13:39:07;18.50;46.50
53422;DHT22;39319;52.944;5.928;2023-04-03T13:41:55;18.50;48.90
53422;DHT22;39319;52.944;5.928;2023-04-03T13:46:51;18.50;46.90
53422;DHT22;39319;52.944;5.928;2023-04-03T13:49:39;18.40;47.30
53422;DHT22;39319;52.944;5.928;2023-04-03T13:52:27;18.20;46.70
53422;DHT22;39319;52.944;5.928;2023-04-03T13:54:59;18.30;47.70
53422;DHT22;39319;52.944;5.928;2023-04-03T13:57:26;18.40;47.60
53422;DHT22;39319;52.944;5.928;2023-04-03T13:59:53;18.40;47.00
53422;DHT22;39319;52.944;5.928;2023-04-03T14:02:32;18.40;47.40
53422;DHT22;39319;52.944;5.928;2023-04-03T14:05:00;18.40;47.60
53422;DHT22;39319;52.944;5.928;2023-04-03T14:07:29;18.30;47.10
53422;DHT22;39319;52.944;5.928;2023-04-03T14:09:56;18.20;47.30
53422;DHT22;39319;52.944;5.928;2023-04-03T14:12:35;18.20;48.50
53422;DHT22;39319;52.944;5.928;2023-04-03T14:15:06;18.30;48.00
53422;DHT22;39319;52.944;5.928;2023-04-03T14:17:33;18.20;46.70
53422;DHT22;39319;52.944;5.928;2023-04-03T14:19:59;18.30;48.10
53422;DHT22;39319;52.944;5.928;2023-04-03T14:22:31;18.30;48.10
53422;DHT22;39319;52.944;5.928;2023-04-03T14:24:58;18.20;47.00
53422;DHT22;39319;52.944;5.928;2023-04-03T14:27:25;18.30;47.50
53422;DHT22;39319;52.944;5.928;2023-04-03T14:29:53;18.20;46.40
53422;DHT22;39319;52.944;5.928;2023-04-03T14:32:23;18.00;45.90
53422;DHT22;39319;52.944;5.928;2023-04-03T14:34:51;18.00;48.30
53422;DHT22;39319;52.944;5.928;2023-04-03T14:37:28;18.00;48.00
53422;DHT22;39319;52.944;5.928;2023-04-03T14:39:56;18.00;47.40
53422;DHT22;39319;52.944;5.928;2023-04-03T14:42:26;18.10;47.60
53422;DHT22;39319;52.944;5.928;2023-04-03T14:44:52;18.10;47.70
53422;DHT22;39319;52.944;5.928;2023-04-03T14:47:25;18.20;46.90
53422;DHT22;39319;52.944;5.928;2023-04-03T14:49:53;18.20;45.00
53422;DHT22;39319;52.944;5.928;2023-04-03T14:54:51;18.30;49.10
53422;DHT22;39319;52.944;5.928;2023-04-03T14:57:17;18.30;47.00
53422;DHT22;39319;52.944;5.928;2023-04-03T14:59:44;18.40;45.90
53422;DHT22;39319;52.944;5.928;2023-04-03T15:02:31;18.40;46.20
53422;DHT22;39319;52.944;5.928;2023-04-03T15:04:58;18.50;46.40
53422;DHT22;39319;52.944;5.928;2023-04-03T15:07:27;18.50;46.40
53422;DHT22;39319;52.944;5.928;2023-04-03T15:09:53;18.50;45.90
53422;DHT22;39319;52.944;5.928;2023-04-03T15:12:22;18.50;46.70
53422;DHT22;39319;52.944;5.928;2023-04-03T15:14:48;18.50;44.70
53422;DHT22;39319;52.944;5.928;2023-04-03T15:17:16;18.50;44.80
53422;DHT22;39319;52.944;5.928;2023-04-03T15:19:43;18.50;45.60
53422;DHT22;39319;52.944;5.928;2023-04-03T15:22:14;18.60;45.50
53422;DHT22;39319;52.944;5.928;2023-04-03T15:24:41;18.50;45.30
53422;DHT22;39319;52.944;5.928;2023-04-03T15:27:07;18.50;44.80
53422;DHT22;39319;52.944;5.928;2023-04-03T15:29:33;18.50;44.30
53422;DHT22;39319;52.944;5.928;2023-04-03T15:31:58;18.50;44.70
53422;DHT22;39319;52.944;5.928;2023-04-03T15:34:24;18.50;44.70
53422;DHT22;39319;52.944;5.928;2023-04-03T15:36:50;18.40;44.30
53422;DHT22;39319;52.944;5.928;2023-04-03T15:39:19;18.20;45.50
53422;DHT22;39319;52.944;5.928;2023-04-03T15:41:46;17.90;45.20
53422;DHT22;39319;52.944;5.928;2023-04-03T15:44:11;17.70;45.80
53422;DHT22;39319;52.944;5.928;2023-04-03T15:46:38;17.40;45.60
53422;DHT22;39319;52.944;5.928;2023-04-03T15:49:04;17.10;46.70
53422;DHT22;39319;52.944;5.928;2023-04-03T15:51:31;17.00;46.70
53422;DHT22;39319;52.944;5.928;2023-04-03T15:53:57;16.90;46.70
53422;DHT22;39319;52.944;5.928;2023-04-03T15:56:22;16.70;46.60
53422;DHT22;39319;52.944;5.928;2023-04-03T15:58:48;16.70;46.90
53422;DHT22;39319;52.944;5.928;2023-04-03T16:01:14;16.60;47.00
53422;DHT22;39319;52.944;5.928;2023-04-03T16:03:42;16.40;47.10
53422;DHT22;39319;52.944;5.928;2023-04-03T16:06:18;16.30;48.40
53422;DHT22;39319;52.944;5.928;2023-04-03T16:08:45;16.20;48.10
53422;DHT22;39319;52.944;5.928;2023-04-03T16:11:12;16.10;47.70
53422;DHT22;39319;52.944;5.928;2023-04-03T16:13:37;16.00;48.20
53422;DHT22;39319;52.944;5.928;2023-04-03T16:16:04;15.90;48.30
53422;DHT22;39319;52.944;5.928;2023-04-03T16:18:31;15.80;48.60
53422;DHT22;39319;52.944;5.928;2023-04-03T16:20:57;15.70;48.70
53422;DHT22;39319;52.944;5.928;2023-04-03T16:23:23;15.50;50.00
53422;DHT22;39319;52.944;5.928;2023-04-03T16:25:49;15.50;49.70
53422;DHT22;39319;52.944;5.928;2023-04-03T16:28:16;15.40;48.60
53422;DHT22;39319;52.944;5.928;2023-04-03T16:30:44;15.40;49.70
53422;DHT22;39319;52.944;5.928;2023-04-03T16:33:12;15.20;49.70
53422;DHT22;39319;52.944;5.928;2023-04-03T16:35:38;15.20;49.80
53422;DHT22;39319;52.944;5.928;2023-04-03T16:38:04;15.10;50.90
53422;DHT22;39319;52.944;5.928;2023-04-03T16:40:30;14.90;51.60
53422;DHT22;39319;52.944;5.928;2023-04-03T16:42:55;14.90;52.70
53422;DHT22;39319;52.944;5.928;2023-04-03T16:45:21;14.80;52.30
53422;DHT22;39319;52.944;5.928;2023-04-03T16:47:47;14.70;51.80
53422;DHT22;39319;52.944;5.928;2023-04-03T16:50:13;14.60;53.50
53422;DHT22;39319;52.944;5.928;2023-04-03T16:52:38;14.50;52.70
53422;DHT22;39319;52.944;5.928;2023-04-03T16:55:05;14.40;52.50
53422;DHT22;39319;52.944;5.928;2023-04-03T16:57:31;14.40;52.80
53422;DHT22;39319;52.944;5.928;2023-04-03T16:59:56;14.20;54.00
53422;DHT22;39319;52.944;5.928;2023-04-03T17:02:23;14.20;54.40
53422;DHT22;39319;52.944;5.928;2023-04-03T17:04:53;14.00;54.80
53422;DHT22;39319;52.944;5.928;2023-04-03T17:07:22;14.00;56.80
53422;DHT22;39319;52.944;5.928;2023-04-03T17:09:48;13.90;55.90
53422;DHT22;39319;52.944;5.928;2023-04-03T17:12:15;13.90;57.10
53422;DHT22;39319;52.944;5.928;2023-04-03T17:14:41;13.80;58.10
53422;DHT22;39319;52.944;5.928;2023-04-03T17:17:07;13.70;58.10
53422;DHT22;39319;52.944;5.928;2023-04-03T17:19:34;13.70;58.40
53422;DHT22;39319;52.944;5.928;2023-04-03T17:22:00;13.60;57.40
53422;DHT22;39319;52.944;5.928;2023-04-03T17:24:27;13.50;57.90
53422;DHT22;39319;52.944;5.928;2023-04-03T17:26:53;13.40;58.90